首页
METAR-TAF:

METAR-TAF

机场 :

班吉-姆波科国际机场

班基, 中非共和国

纬度: 04-24N, 经度: 018-31E, 海拔: 365米

当前天气观测

该预报发布于44分钟前的13:30 UTC
风速11节,风向北转东北
温度 31°C
湿度 63%
气压 1011 hPa
能见度10公里或以上
散云层高于2300英尺
少量云层高于4000英尺, 积雨云.

METAR: FEFF 261330Z 02011KT 9999 SCT023 FEW040CB 31/23 Q1011 TEMPO TS

时间: 15:14 (14:14 UTC)

预报

该预报发布于3小时和14分钟前的11:00 UTC
预报有效从26日的 12点(UTC)到 27日的 18点(UTC)
风速6节,风向西转西南
能见度10公里或以上
多云层高于2600英尺
少量云层高于3300英尺, 积雨云.
短暂存在
从 26日的 13点(UTC)到 26日的 15点(UTC)
风速15节,风向
能見度: 4000
雷暴, 雨
从 26日的 1900点(UTC)
风速3节,风向多变
能见度10公里或以上
1500米以下无云,无积雨云

TAF: FEFF 261100Z 2612/2718 24006KT 9999 BKN026 FEW033CB TEMPO 2613/2615 09015KT 4000 TSRA FM261900 VRB03KT CAVOK

超过4000个机场的气象观测和天气预报(METAR&TAF报告)。

可查询的气象台以黄色和红色小点在地图上表示。

将鼠标移到小点上方,可查看气象台名称。

然后点击查看天气观测和预报。

如需切换地图:点击带黑十字的绿色按钮放大地图;点击带横线的绿色按钮缩小地图;或者点击绿色箭头查看邻近地区的地图。


METAR-TAF: